sensor_id;sensor_type;location;lat;lon;timestamp;P1;P2;P0
65556;PMS3003;52200;53.490;14.376;2023-06-26T00:02:16;18.75;14.50;10.75
65556;PMS3003;52200;53.490;14.376;2023-06-26T00:04:42;18.00;14.75;8.75
65556;PMS3003;52200;53.490;14.376;2023-06-26T00:07:08;19.80;16.00;9.00
65556;PMS3003;52200;53.490;14.376;2023-06-26T00:09:33;17.75;13.50;10.00
65556;PMS3003;52200;53.490;14.376;2023-06-26T00:11:59;18.40;15.40;9.60
65556;PMS3003;52200;53.490;14.376;2023-06-26T00:14:25;17.50;14.25;9.00
65556;PMS3003;52200;53.490;14.376;2023-06-26T00:16:51;18.40;13.60;8.00
65556;PMS3003;52200;53.490;14.376;2023-06-26T00:19:16;20.00;15.20;9.00
65556;PMS3003;52200;53.490;14.376;2023-06-26T00:21:43;19.80;16.00;9.00
65556;PMS3003;52200;53.490;14.376;2023-06-26T00:24:11;19.00;15.60;10.00
65556;PMS3003;52200;53.490;14.376;2023-06-26T00:26:37;18.80;14.40;9.00
65556;PMS3003;52200;53.490;14.376;2023-06-26T00:29:03;18.50;15.00;9.25
65556;PMS3003;52200;53.490;14.376;2023-06-26T00:31:28;18.25;15.00;9.25
65556;PMS3003;52200;53.490;14.376;2023-06-26T00:33:54;18.25;14.25;9.25
65556;PMS3003;52200;53.490;14.376;2023-06-26T00:36:19;17.25;14.00;9.00
65556;PMS3003;52200;53.490;14.376;2023-06-26T00:38:45;15.00;11.00;7.00
65556;PMS3003;52200;53.490;14.376;2023-06-26T00:41:10;16.00;12.75;8.00
65556;PMS3003;52200;53.490;14.376;2023-06-26T00:43:37;15.20;11.20;7.40
65556;PMS3003;52200;53.490;14.376;2023-06-26T00:46:04;15.60;12.00;9.00
65556;PMS3003;52200;53.490;14.376;2023-06-26T00:48:30;18.00;14.20;8.80
65556;PMS3003;52200;53.490;14.376;2023-06-26T00:50:55;18.00;15.00;9.00
65556;PMS3003;52200;53.490;14.376;2023-06-26T00:53:21;18.50;14.50;10.50
65556;PMS3003;52200;53.490;14.376;2023-06-26T00:55:47;17.00;12.00;8.00
65556;PMS3003;52200;53.490;14.376;2023-06-26T00:58:12;21.00;17.00;11.25
65556;PMS3003;52200;53.490;14.376;2023-06-26T01:00:38;18.00;14.50;7.75
65556;PMS3003;52200;53.490;14.376;2023-06-26T01:03:04;18.80;16.00;10.40
65556;PMS3003;52200;53.490;14.376;2023-06-26T01:05:29;19.25;14.75;10.00
65556;PMS3003;52200;53.490;14.376;2023-06-26T01:07:56;18.00;14.50;10.00
65556;PMS3003;52200;53.490;14.376;2023-06-26T01:10:23;20.00;16.80;10.40
65556;PMS3003;52200;53.490;14.376;2023-06-26T01:12:49;21.00;17.25;11.75
65556;PMS3003;52200;53.490;14.376;2023-06-26T01:15:15;20.25;16.00;11.00
65556;PMS3003;52200;53.490;14.376;2023-06-26T01:17:40;21.50;18.00;13.00
65556;PMS3003;52200;53.490;14.376;2023-06-26T01:20:10;21.60;18.20;11.80
65556;PMS3003;52200;53.490;14.376;2023-06-26T01:27:50;25.20;21.00;14.60
65556;PMS3003;52200;53.490;14.376;2023-06-26T01:30:17;20.80;17.00;11.00
65556;PMS3003;52200;53.490;14.376;2023-06-26T01:32:45;23.80;19.80;13.00
65556;PMS3003;52200;53.490;14.376;2023-06-26T01:35:11;22.40;17.60;11.00
65556;PMS3003;52200;53.490;14.376;2023-06-26T01:37:37;22.00;19.00;12.00
65556;PMS3003;52200;53.490;14.376;2023-06-26T01:40:03;22.00;18.25;13.25
65556;PMS3003;52200;53.490;14.376;2023-06-26T01:42:32;23.40;18.60;12.00
65556;PMS3003;52200;53.490;14.376;2023-06-26T01:44:58;22.40;18.40;12.00
65556;PMS3003;52200;53.490;14.376;2023-06-26T01:47:52;21.40;16.60;12.00
65556;PMS3003;52200;53.490;14.376;2023-06-26T01:50:21;21.40;17.00;11.00
65556;PMS3003;52200;53.490;14.376;2023-06-26T01:53:06;22.00;17.20;11.00
65556;PMS3003;52200;53.490;14.376;2023-06-26T01:55:40;21.20;17.00;12.80
65556;PMS3003;52200;53.490;14.376;2023-06-26T01:58:09;20.20;16.40;10.80
65556;PMS3003;52200;53.490;14.376;2023-06-26T02:00:35;22.80;18.60;11.00
65556;PMS3003;52200;53.490;14.376;2023-06-26T02:03:01;18.20;14.40;9.20
65556;PMS3003;52200;53.490;14.376;2023-06-26T02:05:28;21.20;16.40;10.20
65556;PMS3003;52200;53.490;14.376;2023-06-26T02:07:55;19.60;16.20;11.20
65556;PMS3003;52200;53.490;14.376;2023-06-26T02:10:21;20.75;17.50;10.75
65556;PMS3003;52200;53.490;14.376;2023-06-26T02:12:46;19.00;16.00;9.00
65556;PMS3003;52200;53.490;14.376;2023-06-26T02:15:12;21.25;18.00;12.00
65556;PMS3003;52200;53.490;14.376;2023-06-26T02:17:37;17.75;14.00;9.25
65556;PMS3003;52200;53.490;14.376;2023-06-26T02:20:03;19.25;16.25;10.00
65556;PMS3003;52200;53.490;14.376;2023-06-26T02:22:29;17.40;13.40;9.00
65556;PMS3003;52200;53.490;14.376;2023-06-26T02:24:54;20.50;17.25;10.00
65556;PMS3003;52200;53.490;14.376;2023-06-26T02:27:19;20.75;17.00;11.00
65556;PMS3003;52200;53.490;14.376;2023-06-26T02:29:45;19.00;16.00;11.00
65556;PMS3003;52200;53.490;14.376;2023-06-26T02:32:10;16.50;13.25;8.25
65556;PMS3003;52200;53.490;14.376;2023-06-26T02:34:36;16.50;13.50;8.00
65556;PMS3003;52200;53.490;14.376;2023-06-26T02:37:01;16.50;11.50;8.00
65556;PMS3003;52200;53.490;14.376;2023-06-26T02:39:27;17.25;12.50;9.00
65556;PMS3003;52200;53.490;14.376;2023-06-26T02:41:52;18.50;14.75;9.00
65556;PMS3003;52200;53.490;14.376;2023-06-26T02:44:18;17.75;13.75;8.00
65556;PMS3003;52200;53.490;14.376;2023-06-26T02:46:43;18.50;13.25;9.75
65556;PMS3003;52200;53.490;14.376;2023-06-26T02:49:10;17.00;13.60;9.00
65556;PMS3003;52200;53.490;14.376;2023-06-26T02:51:36;16.50;12.50;7.25
65556;PMS3003;52200;53.490;14.376;2023-06-26T02:54:02;17.80;13.20;9.00
65556;PMS3003;52200;53.490;14.376;2023-06-26T02:56:27;20.00;16.50;10.00
65556;PMS3003;52200;53.490;14.376;2023-06-26T02:58:56;18.20;15.00;8.80
65556;PMS3003;52200;53.490;14.376;2023-06-26T03:01:22;17.25;14.00;9.75
65556;PMS3003;52200;53.490;14.376;2023-06-26T03:03:47;19.25;15.25;9.00
65556;PMS3003;52200;53.490;14.376;2023-06-26T03:06:13;17.00;14.00;9.25
65556;PMS3003;52200;53.490;14.376;2023-06-26T03:08:40;17.20;12.20;8.40
65556;PMS3003;52200;53.490;14.376;2023-06-26T03:11:06;17.80;12.40;8.80
65556;PMS3003;52200;53.490;14.376;2023-06-26T03:13:34;19.40;15.20;9.20
65556;PMS3003;52200;53.490;14.376;2023-06-26T03:16:01;18.00;14.40;9.00
65556;PMS3003;52200;53.490;14.376;2023-06-26T03:18:27;17.20;12.20;8.80
65556;PMS3003;52200;53.490;14.376;2023-06-26T03:20:52;17.75;14.25;9.25
65556;PMS3003;52200;53.490;14.376;2023-06-26T03:23:21;17.60;14.20;10.20
65556;PMS3003;52200;53.490;14.376;2023-06-26T03:25:47;18.80;13.00;9.00
65556;PMS3003;52200;53.490;14.376;2023-06-26T03:28:13;18.60;13.00;8.40
65556;PMS3003;52200;53.490;14.376;2023-06-26T03:30:39;15.25;11.25;8.00
65556;PMS3003;52200;53.490;14.376;2023-06-26T03:33:04;17.50;11.75;8.00
65556;PMS3003;52200;53.490;14.376;2023-06-26T03:35:30;17.25;13.75;9.00
65556;PMS3003;52200;53.490;14.376;2023-06-26T03:37:55;16.25;11.00;8.75
65556;PMS3003;52200;53.490;14.376;2023-06-26T03:40:21;15.00;11.50;7.75
65556;PMS3003;52200;53.490;14.376;2023-06-26T03:42:46;18.00;13.00;7.00
65556;PMS3003;52200;53.490;14.376;2023-06-26T03:45:11;16.25;12.25;8.50
65556;PMS3003;52200;53.490;14.376;2023-06-26T03:47:37;17.25;13.75;9.00
65556;PMS3003;52200;53.490;14.376;2023-06-26T03:50:02;18.75;13.50;10.00
65556;PMS3003;52200;53.490;14.376;2023-06-26T03:52:29;17.20;13.80;8.60
65556;PMS3003;52200;53.490;14.376;2023-06-26T03:54:56;16.80;13.00;9.20
65556;PMS3003;52200;53.490;14.376;2023-06-26T03:57:24;16.40;13.40;9.60
65556;PMS3003;52200;53.490;14.376;2023-06-26T03:59:50;16.75;13.00;8.75
65556;PMS3003;52200;53.490;14.376;2023-06-26T04:02:16;18.40;14.80;9.00
65556;PMS3003;52200;53.490;14.376;2023-06-26T04:04:42;21.50;16.25;11.75
65556;PMS3003;52200;53.490;14.376;2023-06-26T04:07:07;24.50;20.75;13.00
65556;PMS3003;52200;53.490;14.376;2023-06-26T04:09:33;24.50;19.25;13.00
65556;PMS3003;52200;53.490;14.376;2023-06-26T04:11:58;24.00;19.50;11.00
65556;PMS3003;52200;53.490;14.376;2023-06-26T04:14:24;25.25;19.00;11.50
65556;PMS3003;52200;53.490;14.376;2023-06-26T04:16:49;24.25;19.50;14.25
65556;PMS3003;52200;53.490;14.376;2023-06-26T04:19:14;29.75;23.00;15.00
65556;PMS3003;52200;53.490;14.376;2023-06-26T04:21:40;25.50;21.75;14.00
65556;PMS3003;52200;53.490;14.376;2023-06-26T04:24:06;24.00;20.20;13.00
65556;PMS3003;52200;53.490;14.376;2023-06-26T04:26:31;21.25;17.50;11.75
65556;PMS3003;52200;53.490;14.376;2023-06-26T04:28:57;25.25;21.00;14.00
65556;PMS3003;52200;53.490;14.376;2023-06-26T04:31:22;22.75;19.75;12.50
65556;PMS3003;52200;53.490;14.376;2023-06-26T04:33:48;21.00;18.50;13.25
65556;PMS3003;52200;53.490;14.376;2023-06-26T04:36:16;21.40;18.40;11.40
65556;PMS3003;52200;53.490;14.376;2023-06-26T04:38:42;25.60;21.80;14.20
65556;PMS3003;52200;53.490;14.376;2023-06-26T04:41:07;24.00;20.50;13.00
65556;PMS3003;52200;53.490;14.376;2023-06-26T04:43:33;21.25;17.00;12.00
65556;PMS3003;52200;53.490;14.376;2023-06-26T04:45:59;19.75;15.75;10.50
65556;PMS3003;52200;53.490;14.376;2023-06-26T04:48:24;18.25;15.25;11.00
65556;PMS3003;52200;53.490;14.376;2023-06-26T04:50:49;19.50;16.50;11.00
65556;PMS3003;52200;53.490;14.376;2023-06-26T04:53:19;22.40;19.00;12.00
65556;PMS3003;52200;53.490;14.376;2023-06-26T04:55:51;19.20;16.00;11.00
65556;PMS3003;52200;53.490;14.376;2023-06-26T04:58:17;24.20;20.40;13.40
65556;PMS3003;52200;53.490;14.376;2023-06-26T05:00:43;24.40;20.20;11.80
65556;PMS3003;52200;53.490;14.376;2023-06-26T05:03:12;22.25;20.50;12.50
65556;PMS3003;52200;53.490;14.376;2023-06-26T05:05:39;29.20;22.00;14.00
65556;PMS3003;52200;53.490;14.376;2023-06-26T05:08:17;23.00;20.50;12.25
65556;PMS3003;52200;53.490;14.376;2023-06-26T05:10:51;22.40;18.20;13.00
65556;PMS3003;52200;53.490;14.376;2023-06-26T05:13:18;21.40;17.40;12.00
65556;PMS3003;52200;53.490;14.376;2023-06-26T05:15:45;21.20;16.40;10.60
65556;PMS3003;52200;53.490;14.376;2023-06-26T05:18:11;23.80;19.20;12.00
65556;PMS3003;52200;53.490;14.376;2023-06-26T05:20:37;20.40;17.40;11.40
65556;PMS3003;52200;53.490;14.376;2023-06-26T05:23:04;19.80;16.20;12.00
65556;PMS3003;52200;53.490;14.376;2023-06-26T05:25:30;22.20;16.80;10.40
65556;PMS3003;52200;53.490;14.376;2023-06-26T05:27:57;20.40;17.00;10.00
65556;PMS3003;52200;53.490;14.376;2023-06-26T05:30:25;18.60;17.00;11.00
65556;PMS3003;52200;53.490;14.376;2023-06-26T05:32:52;17.20;14.80;10.60
65556;PMS3003;52200;53.490;14.376;2023-06-26T05:35:22;19.80;18.00;11.00
65556;PMS3003;52200;53.490;14.376;2023-06-26T05:37:48;21.40;19.40;10.20
65556;PMS3003;52200;53.490;14.376;2023-06-26T05:40:16;17.60;15.80;9.80
65556;PMS3003;52200;53.490;14.376;2023-06-26T05:42:42;16.40;15.20;10.20
65556;PMS3003;52200;53.490;14.376;2023-06-26T05:45:08;17.50;15.25;9.75
65556;PMS3003;52200;53.490;14.376;2023-06-26T05:47:34;18.80;16.20;9.80
65556;PMS3003;52200;53.490;14.376;2023-06-26T05:50:00;16.00;15.25;9.00
65556;PMS3003;52200;53.490;14.376;2023-06-26T05:52:26;18.80;18.20;10.00
65556;PMS3003;52200;53.490;14.376;2023-06-26T05:54:52;18.50;16.50;9.00
65556;PMS3003;52200;53.490;14.376;2023-06-26T05:57:17;17.50;16.25;10.00
65556;PMS3003;52200;53.490;14.376;2023-06-26T05:59:44;15.60;15.60;8.00
65556;PMS3003;52200;53.490;14.376;2023-06-26T06:02:11;16.40;15.40;8.00
65556;PMS3003;52200;53.490;14.376;2023-06-26T06:04:37;14.80;14.00;8.00
65556;PMS3003;52200;53.490;14.376;2023-06-26T06:07:02;15.00;14.50;8.00
65556;PMS3003;52200;53.490;14.376;2023-06-26T06:09:28;16.00;15.20;8.00
65556;PMS3003;52200;53.490;14.376;2023-06-26T06:11:54;15.25;15.00;8.25
65556;PMS3003;52200;53.490;14.376;2023-06-26T06:14:19;15.25;14.50;7.75
65556;PMS3003;52200;53.490;14.376;2023-06-26T06:16:44;13.75;13.25;7.00
65556;PMS3003;52200;53.490;14.376;2023-06-26T06:19:10;14.75;14.00;7.50
65556;PMS3003;52200;53.490;14.376;2023-06-26T06:21:38;14.80;14.40;6.80
65556;PMS3003;52200;53.490;14.376;2023-06-26T06:24:03;14.50;14.25;7.00
65556;PMS3003;52200;53.490;14.376;2023-06-26T06:26:29;15.00;14.50;7.25
65556;PMS3003;52200;53.490;14.376;2023-06-26T06:28:54;15.25;14.00;7.00
65556;PMS3003;52200;53.490;14.376;2023-06-26T06:31:19;14.00;14.00;7.75
65556;PMS3003;52200;53.490;14.376;2023-06-26T06:33:45;15.00;15.00;7.00
65556;PMS3003;52200;53.490;14.376;2023-06-26T06:36:11;13.00;13.00;7.00
65556;PMS3003;52200;53.490;14.376;2023-06-26T06:38:36;15.00;14.50;7.75
65556;PMS3003;52200;53.490;14.376;2023-06-26T06:41:01;14.75;14.25;7.00
65556;PMS3003;52200;53.490;14.376;2023-06-26T06:43:27;15.00;15.00;8.00
65556;PMS3003;52200;53.490;14.376;2023-06-26T06:45:52;16.00;15.25;8.00
65556;PMS3003;52200;53.490;14.376;2023-06-26T06:48:18;14.00;13.00;5.25
65556;PMS3003;52200;53.490;14.376;2023-06-26T06:50:43;13.75;13.75;7.00
65556;PMS3003;52200;53.490;14.376;2023-06-26T06:53:08;15.50;15.50;9.00
65556;PMS3003;52200;53.490;14.376;2023-06-26T06:55:34;14.50;14.50;8.00
65556;PMS3003;52200;53.490;14.376;2023-06-26T06:57:59;15.50;14.75;8.25
65556;PMS3003;52200;53.490;14.376;2023-06-26T07:00:25;15.50;15.00;8.25
65556;PMS3003;52200;53.490;14.376;2023-06-26T07:02:50;18.00;17.00;8.00
65556;PMS3003;52200;53.490;14.376;2023-06-26T07:05:16;15.25;15.00;8.00
65556;PMS3003;52200;53.490;14.376;2023-06-26T07:07:41;17.00;16.25;9.75
65556;PMS3003;52200;53.490;14.376;2023-06-26T07:10:08;14.00;14.00;8.00
65556;PMS3003;52200;53.490;14.376;2023-06-26T07:12:36;16.00;15.00;7.60
65556;PMS3003;52200;53.490;14.376;2023-06-26T07:15:03;15.80;15.60;7.40
65556;PMS3003;52200;53.490;14.376;2023-06-26T07:17:29;15.80;15.20;8.60
65556;PMS3003;52200;53.490;14.376;2023-06-26T07:19:55;15.80;15.80;8.00
65556;PMS3003;52200;53.490;14.376;2023-06-26T07:22:21;16.00;15.75;8.75
65556;PMS3003;52200;53.490;14.376;2023-06-26T07:24:46;15.00;15.00;9.00
65556;PMS3003;52200;53.490;14.376;2023-06-26T07:27:15;15.20;14.20;8.00
65556;PMS3003;52200;53.490;14.376;2023-06-26T07:29:41;13.60;13.60;8.00
65556;PMS3003;52200;53.490;14.376;2023-06-26T07:32:07;14.60;14.40;9.00
65556;PMS3003;52200;53.490;14.376;2023-06-26T07:34:32;15.00;15.00;8.50
65556;PMS3003;52200;53.490;14.376;2023-06-26T07:36:58;13.00;13.00;7.40
65556;PMS3003;52200;53.490;14.376;2023-06-26T07:39:24;17.75;17.00;9.00
65556;PMS3003;52200;53.490;14.376;2023-06-26T07:41:49;12.50;12.50;7.00
65556;PMS3003;52200;53.490;14.376;2023-06-26T07:44:14;15.75;14.75;9.00
65556;PMS3003;52200;53.490;14.376;2023-06-26T07:46:40;16.00;15.75;8.75
65556;PMS3003;52200;53.490;14.376;2023-06-26T07:49:05;15.00;15.00;8.00
65556;PMS3003;52200;53.490;14.376;2023-06-26T07:51:31;16.00;15.25;8.50
65556;PMS3003;52200;53.490;14.376;2023-06-26T07:53:56;14.75;14.75;8.00
65556;PMS3003;52200;53.490;14.376;2023-06-26T07:56:22;16.25;16.25;8.50
65556;PMS3003;52200;53.490;14.376;2023-06-26T07:58:47;14.25;14.25;8.50
65556;PMS3003;52200;53.490;14.376;2023-06-26T08:01:12;15.25;15.25;8.50
65556;PMS3003;52200;53.490;14.376;2023-06-26T08:03:38;16.50;15.25;8.00
65556;PMS3003;52200;53.490;14.376;2023-06-26T08:06:03;16.00;16.00;9.00
65556;PMS3003;52200;53.490;14.376;2023-06-26T08:08:29;17.00;16.00;9.00
65556;PMS3003;52200;53.490;14.376;2023-06-26T08:10:54;15.75;15.00;9.00
65556;PMS3003;52200;53.490;14.376;2023-06-26T08:13:20;15.50;15.50;10.00
65556;PMS3003;52200;53.490;14.376;2023-06-26T08:15:45;14.50;14.00;9.25
65556;PMS3003;52200;53.490;14.376;2023-06-26T08:18:11;17.00;17.00;10.75
65556;PMS3003;52200;53.490;14.376;2023-06-26T08:20:36;15.50;15.50;9.00
65556;PMS3003;52200;53.490;14.376;2023-06-26T08:23:03;16.00;16.00;9.25
65556;PMS3003;52200;53.490;14.376;2023-06-26T08:25:29;16.40;15.60;9.60
65556;PMS3003;52200;53.490;14.376;2023-06-26T08:27:55;16.25;16.00;8.50
65556;PMS3003;52200;53.490;14.376;2023-06-26T08:30:20;15.00;15.00;10.00
65556;PMS3003;52200;53.490;14.376;2023-06-26T08:32:47;14.20;13.40;9.00
65556;PMS3003;52200;53.490;14.376;2023-06-26T08:35:12;15.75;15.00;9.25
65556;PMS3003;52200;53.490;14.376;2023-06-26T08:37:38;18.00;17.00;10.25
65556;PMS3003;52200;53.490;14.376;2023-06-26T08:40:03;16.00;14.75;9.00
65556;PMS3003;52200;53.490;14.376;2023-06-26T08:42:30;13.80;13.20;7.00
65556;PMS3003;52200;53.490;14.376;2023-06-26T08:44:55;16.50;15.50;9.00
65556;PMS3003;52200;53.490;14.376;2023-06-26T08:47:21;14.75;14.25;7.75
65556;PMS3003;52200;53.490;14.376;2023-06-26T08:49:47;13.25;13.25;7.25
65556;PMS3003;52200;53.490;14.376;2023-06-26T08:52:30;13.00;13.00;7.20
65556;PMS3003;52200;53.490;14.376;2023-06-26T08:55:09;12.80;12.80;7.60
65556;PMS3003;52200;53.490;14.376;2023-06-26T08:57:38;15.00;14.20;8.00
65556;PMS3003;52200;53.490;14.376;2023-06-26T09:00:04;15.00;14.75;9.00
65556;PMS3003;52200;53.490;14.376;2023-06-26T09:02:30;14.80;14.80;8.00
65556;PMS3003;52200;53.490;14.376;2023-06-26T09:04:56;15.00;14.60;8.00
65556;PMS3003;52200;53.490;14.376;2023-06-26T09:07:23;14.20;14.20;9.60
65556;PMS3003;52200;53.490;14.376;2023-06-26T09:09:49;16.40;15.20;6.40
65556;PMS3003;52200;53.490;14.376;2023-06-26T09:12:14;14.00;14.00;7.50
65556;PMS3003;52200;53.490;14.376;2023-06-26T09:14:40;13.60;13.60;8.40
65556;PMS3003;52200;53.490;14.376;2023-06-26T09:17:06;13.00;13.00;7.00
65556;PMS3003;52200;53.490;14.376;2023-06-26T09:19:31;14.50;14.50;8.00
65556;PMS3003;52200;53.490;14.376;2023-06-26T09:21:57;15.50;14.75;8.25
65556;PMS3003;52200;53.490;14.376;2023-06-26T09:24:22;14.50;14.25;8.00
65556;PMS3003;52200;53.490;14.376;2023-06-26T09:26:48;14.75;14.25;8.75
65556;PMS3003;52200;53.490;14.376;2023-06-26T09:29:14;14.40;13.20;8.00
65556;PMS3003;52200;53.490;14.376;2023-06-26T09:31:40;13.00;13.00;7.00
65556;PMS3003;52200;53.490;14.376;2023-06-26T09:34:06;12.75;12.75;6.75
65556;PMS3003;52200;53.490;14.376;2023-06-26T09:36:32;13.25;13.00;6.75
65556;PMS3003;52200;53.490;14.376;2023-06-26T09:39:01;13.20;13.20;8.00
65556;PMS3003;52200;53.490;14.376;2023-06-26T09:41:29;12.80;12.80;7.00
65556;PMS3003;52200;53.490;14.376;2023-06-26T09:43:56;13.80;13.80;6.60
65556;PMS3003;52200;53.490;14.376;2023-06-26T09:46:29;11.40;11.20;6.20
65556;PMS3003;52200;53.490;14.376;2023-06-26T09:49:03;13.20;12.40;6.20
65556;PMS3003;52200;53.490;14.376;2023-06-26T09:51:31;15.00;15.00;8.60
65556;PMS3003;52200;53.490;14.376;2023-06-26T09:53:58;13.60;13.60;7.60
65556;PMS3003;52200;53.490;14.376;2023-06-26T09:56:27;13.50;13.50;8.25
65556;PMS3003;52200;53.490;14.376;2023-06-26T09:58:56;14.60;14.00;8.40
65556;PMS3003;52200;53.490;14.376;2023-06-26T10:01:24;13.80;13.80;8.80
65556;PMS3003;52200;53.490;14.376;2023-06-26T10:03:50;15.80;15.60;9.20
65556;PMS3003;52200;53.490;14.376;2023-06-26T10:06:17;15.00;13.75;8.00
65556;PMS3003;52200;53.490;14.376;2023-06-26T10:08:45;15.00;14.60;8.20
65556;PMS3003;52200;53.490;14.376;2023-06-26T10:11:11;13.80;13.80;7.60
65556;PMS3003;52200;53.490;14.376;2023-06-26T10:13:42;14.80;13.80;8.00
65556;PMS3003;52200;53.490;14.376;2023-06-26T10:16:11;13.40;13.40;8.00
65556;PMS3003;52200;53.490;14.376;2023-06-26T10:18:38;16.40;15.60;9.00
65556;PMS3003;52200;53.490;14.376;2023-06-26T10:21:05;15.00;14.20;7.60
65556;PMS3003;52200;53.490;14.376;2023-06-26T10:23:33;15.20;14.80;8.80
65556;PMS3003;52200;53.490;14.376;2023-06-26T10:26:01;16.00;15.80;9.00
65556;PMS3003;52200;53.490;14.376;2023-06-26T10:28:27;15.00;14.00;9.00
65556;PMS3003;52200;53.490;14.376;2023-06-26T10:30:55;14.60;14.00;9.00
65556;PMS3003;52200;53.490;14.376;2023-06-26T10:33:23;17.40;17.40;10.60
65556;PMS3003;52200;53.490;14.376;2023-06-26T10:35:49;13.60;13.60;7.80
65556;PMS3003;52200;53.490;14.376;2023-06-26T10:38:15;14.50;14.00;8.75
65556;PMS3003;52200;53.490;14.376;2023-06-26T10:40:47;15.75;15.25;8.50
65556;PMS3003;52200;53.490;14.376;2023-06-26T10:43:16;17.00;16.40;10.00
65556;PMS3003;52200;53.490;14.376;2023-06-26T10:45:47;18.40;17.40;10.20
65556;PMS3003;52200;53.490;14.376;2023-06-26T10:48:19;14.80;14.80;9.00
65556;PMS3003;52200;53.490;14.376;2023-06-26T10:50:48;14.75;14.75;9.25
65556;PMS3003;52200;53.490;14.376;2023-06-26T10:55:50;15.40;14.80;10.00
65556;PMS3003;52200;53.490;14.376;2023-06-26T10:58:27;16.20;15.40;9.60
65556;PMS3003;52200;53.490;14.376;2023-06-26T11:03:38;17.60;16.80;10.60
65556;PMS3003;52200;53.490;14.376;2023-06-26T11:06:15;15.40;15.40;9.20
65556;PMS3003;52200;53.490;14.376;2023-06-26T11:12:15;18.00;17.60;11.00
65556;PMS3003;52200;53.490;14.376;2023-06-26T11:14:19;17.60;17.00;11.40
65556;PMS3003;52200;53.490;14.376;2023-06-26T11:16:47;18.60;17.80;11.00
65556;PMS3003;52200;53.490;14.376;2023-06-26T11:19:14;18.00;18.00;12.00
65556;PMS3003;52200;53.490;14.376;2023-06-26T11:21:43;18.20;18.20;11.80
65556;PMS3003;52200;53.490;14.376;2023-06-26T11:24:09;18.75;18.50;11.00
65556;PMS3003;52200;53.490;14.376;2023-06-26T11:26:39;19.80;18.20;12.00
65556;PMS3003;52200;53.490;14.376;2023-06-26T11:29:06;16.80;16.60;10.80
65556;PMS3003;52200;53.490;14.376;2023-06-26T11:31:32;18.60;18.40;11.20
65556;PMS3003;52200;53.490;14.376;2023-06-26T11:34:00;18.60;18.00;11.00
65556;PMS3003;52200;53.490;14.376;2023-06-26T11:36:27;17.00;17.00;11.40
65556;PMS3003;52200;53.490;14.376;2023-06-26T11:39:00;18.00;18.00;12.00
65556;PMS3003;52200;53.490;14.376;2023-06-26T11:41:28;16.60;16.60;11.80
65556;PMS3003;52200;53.490;14.376;2023-06-26T11:43:55;19.80;19.40;12.80
65556;PMS3003;52200;53.490;14.376;2023-06-26T11:46:21;18.40;17.00;11.80
65556;PMS3003;52200;53.490;14.376;2023-06-26T11:48:47;19.00;19.00;10.80
65556;PMS3003;52200;53.490;14.376;2023-06-26T11:51:14;18.20;17.80;11.00
65556;PMS3003;52200;53.490;14.376;2023-06-26T11:53:40;17.40;17.20;11.00
65556;PMS3003;52200;53.490;14.376;2023-06-26T11:56:10;18.40;18.00;11.40
65556;PMS3003;52200;53.490;14.376;2023-06-26T12:01:37;19.40;19.20;12.60
65556;PMS3003;52200;53.490;14.376;2023-06-26T12:04:08;18.20;17.80;11.40
65556;PMS3003;52200;53.490;14.376;2023-06-26T12:06:36;19.60;18.40;11.40
65556;PMS3003;52200;53.490;14.376;2023-06-26T12:09:04;16.40;15.60;10.20
65556;PMS3003;52200;53.490;14.376;2023-06-26T12:11:32;17.80;17.40;10.20
65556;PMS3003;52200;53.490;14.376;2023-06-26T12:13:59;16.80;16.60;10.40
65556;PMS3003;52200;53.490;14.376;2023-06-26T12:16:27;16.60;16.60;11.00
65556;PMS3003;52200;53.490;14.376;2023-06-26T12:19:01;17.80;17.80;11.60
65556;PMS3003;52200;53.490;14.376;2023-06-26T12:24:02;18.60;18.60;10.60
65556;PMS3003;52200;53.490;14.376;2023-06-26T12:26:28;16.00;15.00;9.40
65556;PMS3003;52200;53.490;14.376;2023-06-26T12:29:03;17.20;15.40;10.60
65556;PMS3003;52200;53.490;14.376;2023-06-26T12:31:30;17.00;17.00;9.60
65556;PMS3003;52200;53.490;14.376;2023-06-26T12:33:56;15.40;15.40;9.00
65556;PMS3003;52200;53.490;14.376;2023-06-26T12:36:22;15.75;15.75;10.25
65556;PMS3003;52200;53.490;14.376;2023-06-26T12:38:48;16.25;16.00;9.75
65556;PMS3003;52200;53.490;14.376;2023-06-26T12:41:14;16.75;16.75;11.00
65556;PMS3003;52200;53.490;14.376;2023-06-26T12:43:40;17.00;16.80;10.00
65556;PMS3003;52200;53.490;14.376;2023-06-26T12:46:06;18.00;17.00;10.75
65556;PMS3003;52200;53.490;14.376;2023-06-26T12:51:10;15.60;15.40;10.00
65556;PMS3003;52200;53.490;14.376;2023-06-26T12:53:36;15.20;15.20;9.80
65556;PMS3003;52200;53.490;14.376;2023-06-26T12:56:02;15.80;15.60;9.00
65556;PMS3003;52200;53.490;14.376;2023-06-26T12:58:28;16.25;15.50;9.50
65556;PMS3003;52200;53.490;14.376;2023-06-26T13:00:53;19.00;18.25;11.25
65556;PMS3003;52200;53.490;14.376;2023-06-26T13:03:19;17.00;16.00;10.25
65556;PMS3003;52200;53.490;14.376;2023-06-26T13:05:45;16.20;16.20;10.60
65556;PMS3003;52200;53.490;14.376;2023-06-26T13:08:12;17.80;16.60;11.00
65556;PMS3003;52200;53.490;14.376;2023-06-26T13:10:37;14.75;14.75;9.00
65556;PMS3003;52200;53.490;14.376;2023-06-26T13:13:04;15.20;15.00;9.60
65556;PMS3003;52200;53.490;14.376;2023-06-26T13:15:30;16.25;16.25;10.00
65556;PMS3003;52200;53.490;14.376;2023-06-26T13:17:55;16.75;16.75;10.50
65556;PMS3003;52200;53.490;14.376;2023-06-26T13:20:21;18.00;17.00;10.00
65556;PMS3003;52200;53.490;14.376;2023-06-26T13:22:46;17.75;17.75;11.00
65556;PMS3003;52200;53.490;14.376;2023-06-26T13:25:11;20.50;18.75;10.50
65556;PMS3003;52200;53.490;14.376;2023-06-26T13:27:37;15.25;15.00;9.00
65556;PMS3003;52200;53.490;14.376;2023-06-26T13:30:02;17.25;17.25;11.00
65556;PMS3003;52200;53.490;14.376;2023-06-26T13:32:28;17.00;17.00;10.00
65556;PMS3003;52200;53.490;14.376;2023-06-26T13:34:53;17.00;16.00;10.50
65556;PMS3003;52200;53.490;14.376;2023-06-26T13:37:19;20.00;18.25;12.00
65556;PMS3003;52200;53.490;14.376;2023-06-26T13:39:44;18.00;18.00;10.50
65556;PMS3003;52200;53.490;14.376;2023-06-26T13:42:15;17.20;16.40;10.00
65556;PMS3003;52200;53.490;14.376;2023-06-26T13:44:41;17.80;16.60;9.60
65556;PMS3003;52200;53.490;14.376;2023-06-26T13:47:07;16.00;16.00;11.00
65556;PMS3003;52200;53.490;14.376;2023-06-26T13:49:32;15.00;15.00;9.60
65556;PMS3003;52200;53.490;14.376;2023-06-26T13:51:58;15.25;15.00;9.75
65556;PMS3003;52200;53.490;14.376;2023-06-26T13:54:23;19.75;18.50;10.50
65556;PMS3003;52200;53.490;14.376;2023-06-26T13:56:49;16.00;16.00;9.20
65556;PMS3003;52200;53.490;14.376;2023-06-26T13:59:15;17.75;17.00;10.50
65556;PMS3003;52200;53.490;14.376;2023-06-26T14:01:40;16.50;16.00;9.50